Time;durP1;ratioP1;P1;durP2;ratioP2;P2;SDS_P1;SDS_P2;PMS_P1;PMS_P2;Temp;Humidity;BMP_temperature;BMP_pressure;BME280_temperature;BME280_humidity;BME280_pressure;Samples;Min_cycle;Max_cycle;Signal;HPM_P1;HPM_P2
2021/07/25 00:00:48;;;;;;;13.77;12.00;;;25.00;67.70;;;;;;6127460;23;20406;-50
2021/07/25 00:03:15;;;;;;;17.90;13.50;;;24.90;68.00;;;;;;6127383;23;20406;-46
2021/07/25 00:05:44;;;;;;;23.53;12.00;;;24.90;68.70;;;;;;6127096;23;20414;-44
2021/07/25 00:08:14;;;;;;;15.20;12.20;;;24.90;69.00;;;;;;6126962;23;20659;-44
2021/07/25 00:10:41;;;;;;;12.20;10.80;;;24.90;69.60;;;;;;6127440;23;20386;-44
2021/07/25 00:13:09;;;;;;;15.40;11.00;;;24.80;69.90;;;;;;6126887;23;20999;-48
2021/07/25 00:15:36;;;;;;;12.73;11.13;;;24.70;70.30;;;;;;6127325;23;20725;-43
2021/07/25 00:18:03;;;;;;;15.70;13.10;;;24.70;70.70;;;;;;6126952;23;20810;-44
2021/07/25 00:20:30;;;;;;;15.10;12.43;;;24.60;70.80;;;;;;6127308;23;20739;-43
2021/07/25 00:22:58;;;;;;;14.20;12.37;;;24.50;71.20;;;;;;6126931;23;20675;-47
2021/07/25 00:25:25;;;;;;;15.93;12.97;;;24.50;71.80;;;;;;6127356;23;20768;-45
2021/07/25 00:27:54;;;;;;;19.73;11.90;;;24.40;72.10;;;;;;6127588;23;20402;-47
2021/07/25 00:30:22;;;;;;;14.80;11.43;;;24.30;72.20;;;;;;6127647;23;20414;-46
2021/07/25 00:32:49;;;;;;;16.87;11.83;;;24.30;72.60;;;;;;6127544;23;21041;-48
2021/07/25 00:35:17;;;;;;;13.93;11.73;;;24.20;73.10;;;;;;6127232;23;20765;-46
2021/07/25 00:37:47;;;;;;;13.70;11.27;;;24.20;73.30;;;;;;6127243;23;20445;-46
2021/07/25 00:40:22;;;;;;;15.13;13.40;;;24.10;73.70;;;;;;6127286;23;20422;-48
2021/07/25 00:42:49;;;;;;;14.07;12.50;;;24.00;73.80;;;;;;6130474;23;20436;-46
2021/07/25 00:45:16;;;;;;;17.90;13.63;;;24.00;74.40;;;;;;6130946;23;20527;-49
2021/07/25 00:47:44;;;;;;;15.93;12.27;;;23.90;74.10;;;;;;6130945;23;20422;-43
2021/07/25 00:50:12;;;;;;;15.23;12.53;;;23.90;75.30;;;;;;6130634;23;20454;-46
2021/07/25 00:52:39;;;;;;;15.90;13.60;;;23.90;74.60;;;;;;6130840;23;20407;-46
2021/07/25 00:55:07;;;;;;;15.30;13.00;;;23.80;74.90;;;;;;6130731;23;20468;-44
2021/07/25 00:57:35;;;;;;;14.00;12.37;;;23.80;75.20;;;;;;6130883;23;20414;-49
2021/07/25 01:00:03;;;;;;;20.33;13.43;;;23.70;76.80;;;;;;6131107;23;20410;-45
2021/07/25 01:02:36;;;;;;;13.97;12.13;;;23.70;75.60;;;;;;6130956;23;20390;-45
2021/07/25 01:05:10;;;;;;;15.23;13.60;;;23.70;76.10;;;;;;6130582;23;20457;-48
2021/07/25 01:07:48;;;;;;;14.60;12.00;;;23.60;76.50;;;;;;6130228;23;20434;-49
2021/07/25 01:10:20;;;;;;;13.40;11.83;;;23.50;77.00;;;;;;6130530;23;20474;-46
2021/07/25 01:12:59;;;;;;;13.60;11.77;;;23.50;77.40;;;;;;6130272;23;20391;-47
2021/07/25 01:15:32;;;;;;;13.97;12.47;;;23.40;78.30;;;;;;6130456;23;20448;-46
2021/07/25 01:17:59;;;;;;;14.47;12.90;;;23.40;79.10;;;;;;6130435;23;20387;-49
2021/07/25 01:20:27;;;;;;;15.17;13.53;;;23.40;79.40;;;;;;6129932;23;20407;-45
2021/07/25 01:22:57;;;;;;;15.87;13.13;;;23.30;80.00;;;;;;6129940;23;20932;-48
2021/07/25 01:25:26;;;;;;;17.83;12.83;;;23.30;80.20;;;;;;6130372;23;20468;-51
2021/07/25 01:27:57;;;;;;;14.77;11.90;;;23.30;80.90;;;;;;6130345;23;20406;-46
2021/07/25 01:30:27;;;;;;;15.40;13.53;;;23.30;81.20;;;;;;6130270;23;20390;-46
2021/07/25 01:32:57;;;;;;;14.10;12.60;;;23.30;82.00;;;;;;6130220;23;20441;-48
2021/07/25 01:35:25;;;;;;;18.13;12.50;;;23.20;83.10;;;;;;6130064;23;20394;-43
2021/07/25 01:37:54;;;;;;;14.87;12.13;;;23.20;83.70;;;;;;6130265;23;20476;-47
2021/07/25 01:40:24;;;;;;;14.43;12.40;;;23.20;84.60;;;;;;6129925;23;20739;-47
2021/07/25 01:42:51;;;;;;;15.27;13.07;;;23.10;85.10;;;;;;6130334;23;20469;-51
2021/07/25 01:45:18;;;;;;;15.10;13.00;;;23.00;86.40;;;;;;6130209;23;20394;-48
2021/07/25 01:47:45;;;;;;;14.03;11.90;;;23.00;87.60;;;;;;6129897;23;20398;-48
2021/07/25 01:50:13;;;;;;;14.70;13.20;;;23.00;88.70;;;;;;6129897;23;20425;-45
2021/07/25 01:52:41;;;;;;;24.60;14.77;;;23.00;90.20;;;;;;6128553;23;20710;-45
2021/07/25 01:55:10;;;;;;;14.13;11.50;;;23.00;90.50;;;;;;6128204;23;20442;-46
2021/07/25 01:57:37;;;;;;;14.00;11.63;;;22.90;91.00;;;;;;6128563;23;20407;-43
2021/07/25 02:00:05;;;;;;;15.13;12.70;;;22.80;91.70;;;;;;6128670;23;20411;-46
2021/07/25 02:02:32;;;;;;;13.10;11.70;;;22.80;92.40;;;;;;6128630;23;20453;-46
2021/07/25 02:04:59;;;;;;;14.63;12.03;;;22.70;93.40;;;;;;6128532;23;20406;-46
2021/07/25 02:07:25;;;;;;;14.10;12.67;;;22.70;93.90;;;;;;6127567;23;20501;-48
2021/07/25 02:09:52;;;;;;;17.07;13.60;;;22.70;94.40;;;;;;6126834;23;20469;-42
2021/07/25 02:12:20;;;;;;;16.53;14.33;;;22.70;94.90;;;;;;6126533;23;20407;-45
2021/07/25 02:14:47;;;;;;;18.37;12.67;;;22.60;95.70;;;;;;6126476;23;20454;-49
2021/07/25 02:17:13;;;;;;;15.40;12.40;;;22.60;96.30;;;;;;6126904;23;20403;-42
2021/07/25 02:19:40;;;;;;;19.30;13.83;;;22.60;96.60;;;;;;6126612;23;20423;-47
2021/07/25 02:22:07;;;;;;;17.00;13.30;;;22.70;97.00;;;;;;6126802;23;20403;-47
2021/07/25 02:24:34;;;;;;;14.40;11.97;;;22.70;97.60;;;;;;6126412;23;20410;-48
2021/07/25 02:27:00;;;;;;;16.07;12.60;;;22.60;97.90;;;;;;6126398;23;20446;-49
2021/07/25 02:29:29;;;;;;;16.07;13.93;;;22.60;98.60;;;;;;6126390;23;20411;-43
2021/07/25 02:31:55;;;;;;;15.70;12.90;;;22.60;98.90;;;;;;6126520;23;20469;-44
2021/07/25 02:34:22;;;;;;;17.30;12.80;;;22.50;99.50;;;;;;6126680;23;20442;-42
2021/07/25 02:36:50;;;;;;;18.63;13.40;;;22.50;99.90;;;;;;6126800;23;20426;-46
2021/07/25 02:39:16;;;;;;;16.73;13.67;;;22.40;99.90;;;;;;6126811;23;20438;-43
2021/07/25 02:41:43;;;;;;;17.03;13.60;;;22.40;99.90;;;;;;6126706;23;20465;-43
2021/07/25 02:44:10;;;;;;;13.57;11.70;;;22.40;99.90;;;;;;6126819;23;20477;-46
2021/07/25 02:46:38;;;;;;;16.93;13.10;;;22.40;99.90;;;;;;6126729;23;20462;-48
2021/07/25 02:49:05;;;;;;;15.50;13.03;;;22.40;99.90;;;;;;6126518;23;20407;-48
2021/07/25 02:51:35;;;;;;;17.83;13.73;;;22.30;99.90;;;;;;6126409;23;20921;-43
2021/07/25 02:54:01;;;;;;;22.33;12.67;;;22.30;99.90;;;;;;6126815;23;20461;-45
2021/07/25 02:56:28;;;;;;;18.17;13.90;;;22.20;99.90;;;;;;6126650;23;20414;-43
2021/07/25 02:58:55;;;;;;;18.17;13.03;;;22.20;99.90;;;;;;6126293;23;20888;-44
2021/07/25 03:01:22;;;;;;;15.33;12.33;;;22.10;99.90;;;;;;6126299;23;20430;-47
2021/07/25 03:03:50;;;;;;;18.20;12.70;;;22.10;99.90;;;;;;6126415;23;20446;-49
2021/07/25 03:06:16;;;;;;;15.77;12.30;;;22.10;99.90;;;;;;6083002;23;1019320;-45
2021/07/25 03:08:43;;;;;;;17.33;12.80;;;22.10;99.90;;;;;;6127555;23;20866;-43
2021/07/25 03:11:10;;;;;;;21.50;12.43;;;22.00;99.90;;;;;;6127944;23;20399;-47
2021/07/25 03:13:38;;;;;;;13.17;11.87;;;22.00;99.90;;;;;;6127862;23;20403;-47
2021/07/25 03:16:07;;;;;;;13.53;12.10;;;22.00;99.90;;;;;;6127463;23;20407;-48
2021/07/25 03:18:34;;;;;;;18.53;13.80;;;21.90;99.90;;;;;;6127899;23;20407;-45
2021/07/25 03:21:02;;;;;;;17.60;12.30;;;21.90;99.90;;;;;;6127575;23;20410;-46
2021/07/25 03:23:29;;;;;;;21.57;14.43;;;21.90;99.90;;;;;;6127916;23;20866;-48
2021/07/25 03:25:56;;;;;;;15.83;13.13;;;21.90;99.90;;;;;;6127692;23;20470;-45
2021/07/25 03:28:23;;;;;;;17.77;12.90;;;21.80;99.90;;;;;;6127883;23;20484;-45
2021/07/25 03:30:50;;;;;;;17.30;12.83;;;21.80;99.90;;;;;;6127739;23;20403;-44
2021/07/25 03:33:18;;;;;;;15.17;12.07;;;21.80;99.90;;;;;;6127512;23;20410;-46
2021/07/25 03:35:44;;;;;;;17.13;13.90;;;21.80;99.90;;;;;;6127409;23;20956;-49
2021/07/25 03:38:13;;;;;;;18.67;12.93;;;21.80;99.90;;;;;;6127722;23;20804;-46
2021/07/25 03:40:41;;;;;;;18.27;12.50;;;21.90;99.90;;;;;;6127735;23;20466;-44
2021/07/25 03:43:08;;;;;;;20.93;13.10;;;21.90;99.90;;;;;;6127931;23;20427;-46
2021/07/25 03:45:35;;;;;;;18.53;13.70;;;21.80;99.90;;;;;;6127676;23;20473;-43
2021/07/25 03:48:02;;;;;;;16.13;12.90;;;21.80;99.90;;;;;;6127992;23;20474;-49
2021/07/25 03:50:29;;;;;;;16.40;13.10;;;21.80;99.90;;;;;;6127639;23;20489;-50
2021/07/25 03:52:55;;;;;;;17.33;13.40;;;21.80;99.90;;;;;;6127184;23;20457;-45
2021/07/25 03:55:24;;;;;;;16.43;13.00;;;21.90;99.90;;;;;;6127636;23;20770;-45
2021/07/25 03:57:52;;;;;;;15.37;12.63;;;21.80;99.90;;;;;;6127417;23;20406;-45
2021/07/25 04:00:19;;;;;;;18.17;12.00;;;21.80;99.90;;;;;;6127379;23;20535;-45
2021/07/25 04:02:46;;;;;;;17.17;11.93;;;21.80;99.90;;;;;;6126948;23;20493;-48
2021/07/25 04:05:13;;;;;;;15.27;13.67;;;21.80;99.90;;;;;;6127709;23;20406;-47
2021/07/25 04:07:39;;;;;;;19.67;12.93;;;21.80;99.90;;;;;;6126992;23;20946;-44
2021/07/25 04:10:07;;;;;;;14.10;12.20;;;21.80;99.90;;;;;;6127140;23;20738;-44
2021/07/25 04:12:35;;;;;;;20.93;13.53;;;21.80;99.90;;;;;;6127502;23;20440;-45
2021/07/25 04:15:03;;;;;;;14.03;12.20;;;21.80;99.90;;;;;;6127095;23;20502;-46
2021/07/25 04:17:30;;;;;;;16.63;13.13;;;21.80;99.90;;;;;;6127384;23;20474;-45
2021/07/25 04:19:57;;;;;;;17.70;13.47;;;21.80;99.90;;;;;;6127148;23;20415;-44
2021/07/25 04:22:26;;;;;;;16.70;13.33;;;21.80;99.90;;;;;;6127398;23;20493;-42
2021/07/25 04:24:53;;;;;;;20.57;13.37;;;21.80;99.90;;;;;;6127410;23;20405;-48
2021/07/25 04:27:20;;;;;;;16.33;14.73;;;21.80;99.90;;;;;;6127429;23;20488;-46
2021/07/25 04:29:49;;;;;;;13.27;11.17;;;21.80;99.90;;;;;;6127046;23;20414;-49
2021/07/25 04:32:16;;;;;;;19.20;12.97;;;21.80;99.90;;;;;;6127342;23;20985;-47
2021/07/25 04:34:44;;;;;;;15.30;12.50;;;21.80;99.90;;;;;;6127160;23;20862;-47
2021/07/25 04:37:22;;;;;;;22.13;12.50;;;21.80;99.90;;;;;;6127399;23;20411;-48
2021/07/25 04:39:49;;;;;;;15.77;13.23;;;21.90;99.90;;;;;;6127029;23;20424;-44
2021/07/25 04:42:18;;;;;;;15.50;13.30;;;21.90;99.90;;;;;;6126933;23;20458;-42
2021/07/25 04:44:54;;;;;;;16.03;13.07;;;21.90;99.90;;;;;;6127397;23;20402;-43
2021/07/25 04:47:30;;;;;;;17.00;13.90;;;21.90;99.90;;;;;;6127477;23;20387;-48
2021/07/25 04:50:05;;;;;;;16.77;12.70;;;21.90;99.90;;;;;;6127278;23;20402;-47
2021/07/25 04:52:37;;;;;;;17.97;13.47;;;21.90;99.90;;;;;;6127277;23;20390;-44
2021/07/25 04:55:07;;;;;;;20.30;12.80;;;21.90;99.90;;;;;;6127196;23;20457;-45
2021/07/25 04:57:39;;;;;;;13.50;12.10;;;21.90;99.90;;;;;;6127277;23;20750;-47
2021/07/25 05:00:09;;;;;;;16.97;12.90;;;21.90;99.90;;;;;;6127274;23;20387;-43
2021/07/25 05:02:38;;;;;;;16.83;14.10;;;21.90;99.90;;;;;;6127169;23;20419;-42
2021/07/25 05:05:06;;;;;;;21.43;14.03;;;21.90;99.90;;;;;;6127185;23;20494;-46
2021/07/25 05:07:40;;;;;;;18.47;13.67;;;21.90;99.90;;;;;;6126683;23;20505;-47
2021/07/25 05:10:08;;;;;;;16.07;13.30;;;21.90;99.90;;;;;;6127275;23;20874;-47
2021/07/25 05:12:40;;;;;;;16.47;13.27;;;22.00;99.90;;;;;;6127155;23;20491;-49
2021/07/25 05:15:14;;;;;;;16.87;13.50;;;22.10;99.90;;;;;;6126754;23;20957;-46
2021/07/25 05:17:46;;;;;;;16.60;13.10;;;22.10;99.90;;;;;;6126888;23;20695;-49
2021/07/25 05:20:17;;;;;;;14.83;12.03;;;22.10;99.90;;;;;;6126789;23;20473;-46
2021/07/25 05:22:52;;;;;;;15.83;12.93;;;22.20;99.90;;;;;;6127302;23;20457;-45
2021/07/25 05:25:21;;;;;;;15.20;12.20;;;22.20;99.90;;;;;;6127323;23;20441;-46
2021/07/25 05:27:49;;;;;;;17.90;13.80;;;22.30;99.90;;;;;;6127787;23;20928;-48
2021/07/25 05:30:19;;;;;;;15.73;13.80;;;22.40;99.90;;;;;;6128911;23;20406;-45
2021/07/25 05:32:46;;;;;;;17.23;14.10;;;22.40;99.90;;;;;;6128570;23;20454;-48
2021/07/25 05:35:14;;;;;;;15.60;12.27;;;22.50;99.90;;;;;;6128839;23;20735;-49
2021/07/25 05:37:41;;;;;;;15.70;13.40;;;22.50;99.90;;;;;;6128795;23;20413;-46
2021/07/25 05:40:10;;;;;;;15.63;12.97;;;22.60;99.90;;;;;;6128891;23;20415;-49
2021/07/25 05:42:39;;;;;;;19.13;13.77;;;22.60;99.90;;;;;;6128810;23;20457;-46
2021/07/25 05:45:08;;;;;;;15.13;12.53;;;22.60;99.90;;;;;;6128734;23;20409;-43
2021/07/25 05:47:36;;;;;;;14.00;12.30;;;22.70;99.90;;;;;;6103963;23;20444;-49
2021/07/25 05:50:03;;;;;;;15.47;12.83;;;22.70;99.90;;;;;;6128360;23;20434;-45
2021/07/25 05:52:42;;;;;;;19.43;13.90;;;22.80;99.90;;;;;;6128368;23;20414;-46
2021/07/25 05:55:09;;;;;;;17.47;13.33;;;22.90;99.90;;;;;;6127905;23;20442;-44
2021/07/25 05:57:36;;;;;;;17.27;13.97;;;23.00;99.90;;;;;;6128843;23;20402;-43
2021/07/25 06:00:03;;;;;;;16.87;13.37;;;23.00;99.90;;;;;;6128294;23;20418;-46
2021/07/25 06:02:30;;;;;;;14.63;13.23;;;23.10;99.90;;;;;;6128635;23;20407;-52
2021/07/25 06:07:59;;;;;;;15.13;13.50;;;23.40;99.90;;;;;;6085627;23;20389;31
2021/07/25 06:10:28;;;;;;;17.80;12.70;;;23.60;99.90;;;;;;6071805;23;20397;-45
2021/07/25 06:12:56;;;;;;;17.60;12.17;;;23.80;99.90;;;;;;6071102;23;20499;-45
2021/07/25 06:15:23;;;;;;;15.80;13.07;;;23.90;99.90;;;;;;6071622;23;20795;-44
2021/07/25 06:17:51;;;;;;;19.17;12.80;;;24.10;99.90;;;;;;6071447;23;20457;-45
2021/07/25 06:20:18;;;;;;;14.70;12.20;;;24.30;99.90;;;;;;6071405;23;20420;-45
2021/07/25 06:22:46;;;;;;;16.90;13.90;;;24.40;99.90;;;;;;6071751;23;20408;-45
2021/07/25 06:25:18;;;;;;;15.63;13.17;;;24.60;99.90;;;;;;6070457;23;20420;-46
2021/07/25 06:27:44;;;;;;;20.80;13.57;;;24.70;99.90;;;;;;6071508;23;20393;-44
2021/07/25 06:30:12;;;;;;;16.53;13.90;;;24.80;99.90;;;;;;6073803;23;20393;-42
2021/07/25 06:32:59;;;;;;;21.23;13.43;;;24.80;99.90;;;;;;6070414;23;20397;-42
2021/07/25 06:35:27;;;;;;;16.33;14.63;;;24.90;99.90;;;;;;6070281;23;20921;-42
2021/07/25 06:37:55;;;;;;;15.23;13.50;;;24.90;99.90;;;;;;6070650;23;20503;-42
2021/07/25 06:40:24;;;;;;;15.27;13.67;;;24.90;99.90;;;;;;6069787;23;20424;-48
2021/07/25 06:42:50;;;;;;;15.67;14.03;;;24.90;99.90;;;;;;6070292;23;20775;-44
2021/07/25 06:45:17;;;;;;;17.50;12.80;;;24.90;99.90;;;;;;6070311;23;20405;-47
2021/07/25 06:47:47;;;;;;;18.13;13.90;;;25.00;99.90;;;;;;6069778;23;20408;-44
2021/07/25 06:50:14;;;;;;;18.80;13.97;;;24.90;99.90;;;;;;6070003;23;20935;-46
2021/07/25 06:52:40;;;;;;;19.07;14.00;;;24.90;99.90;;;;;;6070182;23;20710;-47
2021/07/25 06:55:09;;;;;;;18.63;13.97;;;24.90;99.90;;;;;;6070090;23;20846;-45
2021/07/25 06:57:37;;;;;;;14.50;12.60;;;25.00;99.90;;;;;;6070221;23;20428;-49
2021/07/25 07:00:04;;;;;;;15.70;13.93;;;25.10;99.90;;;;;;6069874;23;20408;-45
2021/07/25 07:02:46;;;;;;;16.80;13.13;;;25.10;99.90;;;;;;6069666;23;20420;-44
2021/07/25 07:05:13;;;;;;;15.73;14.13;;;25.20;99.90;;;;;;6070104;23;20467;-48
2021/07/25 07:07:39;;;;;;;19.73;15.03;;;25.30;99.90;;;;;;6069905;23;20475;-46
2021/07/25 07:10:06;;;;;;;16.40;12.90;;;25.40;99.90;;;;;;6098780;23;20437;-43
2021/07/25 07:12:34;;;;;;;14.50;12.97;;;25.60;99.90;;;;;;6098671;23;20407;-43
2021/07/25 07:15:03;;;;;;;24.83;14.17;;;25.70;99.90;;;;;;6098719;23;20453;-44
2021/07/25 07:17:30;;;;;;;20.00;14.33;;;25.70;99.90;;;;;;6098282;23;20406;-45
2021/07/25 07:19:56;;;;;;;15.87;13.00;;;25.90;99.90;;;;;;6098259;23;20878;-47
2021/07/25 07:22:27;;;;;;;15.10;13.50;;;26.00;99.90;;;;;;6098529;23;20536;-48
2021/07/25 07:24:54;;;;;;;13.40;11.97;;;26.50;99.90;;;;;;6098294;23;20475;-48
2021/07/25 07:27:20;;;;;;;13.13;11.73;;;27.60;99.90;;;;;;6098576;23;20458;-45
2021/07/25 07:29:47;;;;;;;14.80;13.43;;;28.70;98.80;;;;;;6098658;23;20419;-46
2021/07/25 07:32:15;;;;;;;15.60;13.40;;;30.00;93.40;;;;;;6098665;23;20424;-50
2021/07/25 07:34:43;;;;;;;13.50;12.00;;;31.00;87.30;;;;;;6099488;23;20408;-48
2021/07/25 07:37:10;;;;;;;18.77;13.23;;;31.40;83.20;;;;;;6098338;23;20450;-45
2021/07/25 07:39:38;;;;;;;13.10;11.70;;;32.10;79.40;;;;;;6098161;23;20925;-50
2021/07/25 07:42:05;;;;;;;14.50;13.13;;;33.00;73.80;;;;;;6098781;23;20415;-51
2021/07/25 07:44:32;;;;;;;15.80;13.50;;;33.40;70.30;;;;;;6098892;23;20540;-46
2021/07/25 07:46:59;;;;;;;17.00;14.53;;;33.60;67.20;;;;;;6098684;23;20415;-45
2021/07/25 07:49:27;;;;;;;13.97;12.57;;;33.60;65.40;;;;;;6099807;23;20934;-47
2021/07/25 07:51:54;;;;;;;14.73;13.43;;;33.40;65.00;;;;;;6099378;23;20466;-45
2021/07/25 07:54:21;;;;;;;13.93;12.53;;;33.40;64.70;;;;;;6100177;23;20423;-47
2021/07/25 07:56:48;;;;;;;14.23;12.87;;;33.90;63.20;;;;;;6100266;23;20447;-47
2021/07/25 07:59:14;;;;;;;14.40;12.90;;;34.10;62.90;;;;;;6098672;23;20407;-45
2021/07/25 08:01:41;;;;;;;13.23;12.03;;;34.40;61.00;;;;;;6097808;23;20407;-49
2021/07/25 08:04:08;;;;;;;16.73;14.03;;;34.60;60.10;;;;;;6099392;23;20711;-46
2021/07/25 08:06:36;;;;;;;15.87;14.27;;;34.30;59.70;;;;;;6099216;23;20463;-52
2021/07/25 08:09:03;;;;;;;14.20;12.80;;;33.70;60.30;;;;;;6099050;23;20456;-45
2021/07/25 08:11:30;;;;;;;16.93;14.20;;;33.10;61.80;;;;;;6100121;23;20420;-52
2021/07/25 08:13:57;;;;;;;16.03;13.20;;;32.90;62.90;;;;;;6099137;23;20474;-46
2021/07/25 08:16:24;;;;;;;16.50;14.80;;;33.00;62.80;;;;;;6098771;23;21026;-50
2021/07/25 08:18:50;;;;;;;14.57;13.30;;;33.50;62.10;;;;;;6099818;23;20819;-48
2021/07/25 08:21:17;;;;;;;14.00;12.10;;;33.90;61.00;;;;;;6098306;23;20863;-47
2021/07/25 08:23:45;;;;;;;13.97;12.73;;;34.70;59.70;;;;;;6098621;23;20412;-49
2021/07/25 08:26:12;;;;;;;14.73;13.40;;;35.50;57.30;;;;;;6098594;23;20399;-52
2021/07/25 08:28:39;;;;;;;14.30;12.83;;;36.30;56.00;;;;;;6098849;23;20419;-49
2021/07/25 08:31:06;;;;;;;15.63;14.03;;;36.90;54.90;;;;;;6098999;23;20403;-51
2021/07/25 08:33:32;;;;;;;14.83;13.33;;;37.30;53.70;;;;;;6099037;23;20430;-46
2021/07/25 08:35:59;;;;;;;15.10;13.70;;;37.70;52.80;;;;;;6098815;23;20447;-47
2021/07/25 08:38:26;;;;;;;15.57;14.07;;;38.00;51.80;;;;;;6099129;23;20403;-49
2021/07/25 08:41:11;;;;;;;14.77;12.80;;;38.40;50.40;;;;;;6098615;23;20407;-49
2021/07/25 08:43:41;;;;;;;14.50;13.10;;;38.60;50.10;;;;;;6098383;23;20434;-50
2021/07/25 08:46:15;;;;;;;12.83;11.60;;;38.60;49.30;;;;;;6097352;23;20725;-46
2021/07/25 08:48:46;;;;;;;15.33;13.80;;;38.80;49.00;;;;;;6100216;23;20831;-48
2021/07/25 08:51:17;;;;;;;12.70;11.60;;;38.80;48.40;;;;;;6099758;23;20404;-50
2021/07/25 08:53:51;;;;;;;15.37;13.97;;;39.00;48.90;;;;;;6100575;23;20747;-43
2021/07/25 08:56:19;;;;;;;15.87;14.37;;;39.50;47.80;;;;;;6100593;23;20514;-43
2021/07/25 08:58:48;;;;;;;13.10;11.90;;;39.80;47.10;;;;;;6099521;23;20406;-43
2021/07/25 09:01:15;;;;;;;15.30;13.80;;;40.10;46.60;;;;;;6100116;23;20878;-50
2021/07/25 09:03:42;;;;;;;15.47;13.00;;;40.30;46.00;;;;;;6100756;23;20478;-45
2021/07/25 09:06:11;;;;;;;15.43;13.73;;;40.20;46.00;;;;;;6100326;23;20403;-48
2021/07/25 09:08:39;;;;;;;15.13;13.50;;;40.10;46.40;;;;;;6108465;23;20455;-45
2021/07/25 09:11:07;;;;;;;13.70;12.50;;;40.30;45.60;;;;;;6115589;23;20411;-46
2021/07/25 09:13:36;;;;;;;16.37;12.70;;;40.40;44.70;;;;;;6117643;23;20434;-45
2021/07/25 09:16:05;;;;;;;14.53;13.10;;;40.70;44.80;;;;;;6118765;23;20449;-42
2021/07/25 09:18:32;;;;;;;14.33;12.90;;;40.90;44.00;;;;;;6115194;23;20403;-49
2021/07/25 09:20:59;;;;;;;14.80;13.50;;;40.90;44.30;;;;;;6116226;23;20419;-49
2021/07/25 09:23:26;;;;;;;15.20;13.53;;;41.00;44.40;;;;;;6115478;23;20756;-43
2021/07/25 09:25:55;;;;;;;14.83;13.43;;;40.80;43.80;;;;;;6115071;23;20835;-47
2021/07/25 09:28:41;;;;;;;13.90;12.60;;;40.20;44.20;;;;;;6111931;23;20404;-43
2021/07/25 09:31:14;;;;;;;14.40;13.13;;;39.10;46.10;;;;;;6102126;23;20466;-46
2021/07/25 09:33:45;;;;;;;14.93;13.33;;;38.00;47.10;;;;;;6099886;23;20394;-43
2021/07/25 09:36:15;;;;;;;14.87;13.47;;;37.70;47.60;;;;;;6100030;23;20457;-46
2021/07/25 09:38:43;;;;;;;15.33;13.80;;;38.00;47.80;;;;;;6099455;23;20407;-48
2021/07/25 09:41:18;;;;;;;15.57;14.17;;;38.30;47.80;;;;;;6100476;23;20407;-44
2021/07/25 09:44:00;;;;;;;16.93;15.37;;;38.60;47.10;;;;;;6101112;23;20877;-50
2021/07/25 09:46:28;;;;;;;14.50;13.10;;;38.90;46.80;;;;;;6100474;23;20387;-46
2021/07/25 09:48:58;;;;;;;14.60;13.10;;;39.20;46.60;;;;;;6100367;23;20483;-50
2021/07/25 09:51:25;;;;;;;14.63;13.33;;;39.60;45.40;;;;;;6101255;23;20430;-50
2021/07/25 09:53:53;;;;;;;14.70;13.30;;;40.10;45.10;;;;;;6101653;23;20499;-48
2021/07/25 09:56:23;;;;;;;15.10;13.80;;;40.30;45.30;;;;;;6100853;23;20438;-47
2021/07/25 09:58:52;;;;;;;14.47;13.17;;;40.40;44.80;;;;;;6100630;23;20400;-49
2021/07/25 10:01:35;;;;;;;13.10;11.80;;;40.80;43.40;;;;;;6100642;23;20676;-51
2021/07/25 10:04:15;;;;;;;14.13;12.90;;;40.90;43.10;;;;;;6100966;23;20391;-48
2021/07/25 10:06:43;;;;;;;13.97;12.77;;;41.20;43.10;;;;;;6102697;23;20388;-44
2021/07/25 10:09:11;;;;;;;14.07;12.80;;;41.10;42.50;;;;;;6102062;23;20439;-46
2021/07/25 10:11:43;;;;;;;15.50;14.20;;;40.80;42.60;;;;;;6101048;23;20471;-44
2021/07/25 10:14:15;;;;;;;14.17;12.73;;;40.50;43.40;;;;;;6099251;23;20455;-45
2021/07/25 10:16:42;;;;;;;14.43;12.97;;;40.50;42.80;;;;;;6100118;23;20799;-49
2021/07/25 10:19:09;;;;;;;13.60;12.50;;;40.60;43.20;;;;;;6099783;23;20447;-49
2021/07/25 10:21:38;;;;;;;14.60;13.13;;;40.60;43.30;;;;;;6099969;23;20419;-46
2021/07/25 10:24:06;;;;;;;13.60;12.40;;;40.50;43.40;;;;;;6098539;23;20416;-50
2021/07/25 10:26:37;;;;;;;15.20;13.90;;;40.30;43.20;;;;;;6099434;23;20415;-47
2021/07/25 10:29:06;;;;;;;13.97;12.83;;;40.40;43.40;;;;;;6099532;23;20424;-46
2021/07/25 10:31:38;;;;;;;15.00;13.57;;;40.30;44.50;;;;;;6100814;23;20790;-44
2021/07/25 10:34:06;;;;;;;14.83;13.63;;;40.00;44.60;;;;;;6101400;23;20427;-46
2021/07/25 10:36:33;;;;;;;14.13;12.73;;;39.90;43.80;;;;;;6101477;23;20451;-48
2021/07/25 10:39:00;;;;;;;14.80;13.40;;;39.90;43.80;;;;;;6101444;23;20403;-45
2021/07/25 10:41:28;;;;;;;17.30;15.80;;;39.70;44.00;;;;;;6101795;23;20431;-49
2021/07/25 10:43:55;;;;;;;15.50;14.20;;;39.50;44.20;;;;;;6101175;23;20403;-45
2021/07/25 10:46:23;;;;;;;15.33;13.80;;;39.10;45.10;;;;;;6100406;23;20403;-48
2021/07/25 10:49:12;;;;;;;15.50;13.90;;;38.70;45.50;;;;;;6100521;23;20436;-48
2021/07/25 10:51:59;;;;;;;16.00;13.83;;;38.30;45.60;;;;;;6099317;23;20457;-47
2021/07/25 10:54:46;;;;;;;15.57;14.00;;;37.70;46.40;;;;;;6100108;23;20407;-46
2021/07/25 10:57:12;;;;;;;15.00;13.63;;;37.40;47.90;;;;;;6100455;23;20463;-45
2021/07/25 10:59:44;;;;;;;15.63;14.10;;;37.30;47.50;;;;;;6100939;23;20412;-45
2021/07/25 11:02:17;;;;;;;15.67;14.10;;;37.20;47.90;;;;;;6100423;23;20404;-45
2021/07/25 11:05:04;;;;;;;15.17;13.60;;;36.80;49.70;;;;;;6099693;23;20474;-52
2021/07/25 11:07:36;;;;;;;14.23;12.80;;;36.60;48.50;;;;;;6098394;23;20427;-53
2021/07/25 11:10:15;;;;;;;15.87;14.40;;;36.50;49.80;;;;;;6098684;23;20874;-53
2021/07/25 11:13:12;;;;;;;14.80;13.30;;;36.50;49.00;;;;;;6100372;23;20425;-53
2021/07/25 11:15:39;;;;;;;15.27;13.67;;;36.30;49.90;;;;;;6100031;23;20395;-52
2021/07/25 11:18:07;;;;;;;15.50;14.03;;;36.10;49.40;;;;;;6099478;23;20945;-53
2021/07/25 11:21:01;;;;;;;16.63;14.43;;;35.90;49.60;;;;;;6099597;23;20415;-52
2021/07/25 11:23:33;;;;;;;16.83;14.80;;;35.40;50.10;;;;;;6099199;23;20425;-54
2021/07/25 11:26:38;;;;;;;16.27;14.70;;;34.80;51.00;;;;;;6099017;23;20443;-51
2021/07/25 11:29:17;;;;;;;17.93;16.33;;;34.20;52.80;;;;;;6099232;23;20442;-51
2021/07/25 11:31:49;;;;;;;15.77;14.13;;;34.00;53.30;;;;;;6098143;23;20471;-54
2021/07/25 11:34:27;;;;;;;14.73;13.23;;;33.90;54.30;;;;;;6099603;23;20407;-51
2021/07/25 11:36:55;;;;;;;15.23;13.90;;;34.10;53.30;;;;;;6099931;23;20746;-53
2021/07/25 11:39:22;;;;;;;14.77;13.27;;;34.10;53.20;;;;;;6099692;23;20463;-55
2021/07/25 11:41:50;;;;;;;14.90;13.40;;;34.20;53.20;;;;;;6099480;23;20423;-54
2021/07/25 11:44:25;;;;;;;16.00;13.60;;;34.20;53.10;;;;;;6100278;23;20411;-54
2021/07/25 11:46:51;;;;;;;13.60;12.30;;;34.20;53.10;;;;;;6100022;23;20402;-52
2021/07/25 11:49:21;;;;;;;13.57;12.17;;;34.00;53.00;;;;;;6099860;23;20427;-54
2021/07/25 11:51:50;;;;;;;15.17;12.30;;;33.90;53.60;;;;;;6099634;23;20499;-51
2021/07/25 11:54:20;;;;;;;13.50;12.20;;;33.90;53.20;;;;;;6099876;23;20470;-51
2021/07/25 11:57:09;;;;;;;13.00;11.80;;;34.00;53.70;;;;;;6099671;23;20502;-49
2021/07/25 11:59:37;;;;;;;15.93;14.40;;;34.00;53.00;;;;;;6091622;23;20881;-47
2021/07/25 12:02:05;;;;;;;13.80;12.50;;;34.20;52.60;;;;;;6099906;23;20404;-50
2021/07/25 12:04:34;;;;;;;15.57;14.00;;;34.10;53.00;;;;;;6100357;23;20404;-49
2021/07/25 12:07:06;;;;;;;15.87;14.17;;;34.20;52.70;;;;;;6100782;23;20476;-54
2021/07/25 12:09:33;;;;;;;14.67;13.17;;;34.10;53.60;;;;;;6099907;23;20431;-54
2021/07/25 12:12:02;;;;;;;14.73;13.43;;;34.10;53.90;;;;;;6099740;23;20825;-52
2021/07/25 12:14:31;;;;;;;17.17;14.83;;;34.00;54.40;;;;;;6099647;23;20408;-51
2021/07/25 12:16:58;;;;;;;15.37;13.90;;;34.00;54.60;;;;;;6099514;23;20712;-54
2021/07/25 12:19:25;;;;;;;13.93;12.63;;;34.20;53.70;;;;;;6100279;23;20474;-48
2021/07/25 12:22:18;;;;;;;14.50;13.10;;;34.40;53.70;;;;;;6100047;23;20495;-54
2021/07/25 12:24:48;;;;;;;16.97;14.20;;;34.40;52.70;;;;;;6100953;23;20415;-50
2021/07/25 12:27:27;;;;;;;15.13;13.80;;;34.30;52.50;;;;;;6100390;23;20392;-52
2021/07/25 12:30:11;;;;;;;14.37;12.93;;;34.00;53.00;;;;;;6099501;23;20865;-55
2021/07/25 12:32:38;;;;;;;16.10;12.47;;;33.60;53.50;;;;;;6099793;23;20392;-54
2021/07/25 12:35:16;;;;;;;15.83;14.00;;;33.30;54.10;;;;;;6099112;23;20427;-54
2021/07/25 12:37:45;;;;;;;15.13;13.63;;;33.10;54.30;;;;;;6098988;23;20439;-53
2021/07/25 12:40:13;;;;;;;14.83;13.47;;;33.00;54.90;;;;;;6099473;23;20483;-53